Terminal Aerodrome Forecast
Issued by NWS North Platte, NE

Home | Current Version | Previous Version | Text Only | Print | Product List | Glossary Off
Versions: 1 2 3 4 5 6 7 8 9 10 11 12 13 14 15 16 17 18 19 20 21

000
FTUS43 KLBF 152300
TAFVTN
TAF
KVTN 152330Z 1600/1624 23010KT P6SM BKN200
      TEMPO 1600/1602 24012G20KT
     FM160700 29014KT P6SM OVC050
     FM161100 32021G30KT P6SM SCT025 OVC050 PROB30 1611/1617 4SM
      -SHRASN OVC015
     FM161800 34021G30KT P6SM OVC050=

USA.gov is the U.S. government's official web portal to all federal, state and local government web resources and services.